sensor_id;sensor_type;location;lat;lon;timestamp;P1;durP1;ratioP1;P2;durP2;ratioP2
52057;SDS011;38063;53.210;6.504;2023-03-01T00:02:02;17.92;;;10.82;;
52057;SDS011;38063;53.210;6.504;2023-03-01T00:04:29;19.83;;;10.55;;
52057;SDS011;38063;53.210;6.504;2023-03-01T00:06:55;18.85;;;10.82;;
52057;SDS011;38063;53.210;6.504;2023-03-01T00:09:21;19.20;;;11.20;;
52057;SDS011;38063;53.210;6.504;2023-03-01T00:11:46;20.83;;;11.35;;
52057;SDS011;38063;53.210;6.504;2023-03-01T00:14:12;18.25;;;10.85;;
52057;SDS011;38063;53.210;6.504;2023-03-01T00:16:40;20.58;;;11.75;;
52057;SDS011;38063;53.210;6.504;2023-03-01T00:19:09;21.02;;;12.38;;
52057;SDS011;38063;53.210;6.504;2023-03-01T00:21:39;17.83;;;11.65;;
52057;SDS011;38063;53.210;6.504;2023-03-01T00:24:05;22.77;;;11.00;;
52057;SDS011;38063;53.210;6.504;2023-03-01T00:26:30;19.27;;;12.05;;
52057;SDS011;38063;53.210;6.504;2023-03-01T00:28:57;22.83;;;12.30;;
52057;SDS011;38063;53.210;6.504;2023-03-01T00:31:24;20.92;;;11.57;;
52057;SDS011;38063;53.210;6.504;2023-03-01T00:33:53;20.23;;;11.48;;
52057;SDS011;38063;53.210;6.504;2023-03-01T00:36:22;20.13;;;12.13;;
52057;SDS011;38063;53.210;6.504;2023-03-01T00:38:52;20.50;;;11.70;;
52057;SDS011;38063;53.210;6.504;2023-03-01T00:41:18;19.15;;;11.70;;
52057;SDS011;38063;53.210;6.504;2023-03-01T00:43:45;18.42;;;11.43;;
52057;SDS011;38063;53.210;6.504;2023-03-01T00:46:12;20.55;;;12.32;;
52057;SDS011;38063;53.210;6.504;2023-03-01T00:48:39;21.90;;;12.02;;
52057;SDS011;38063;53.210;6.504;2023-03-01T00:53:30;18.20;;;11.13;;
52057;SDS011;38063;53.210;6.504;2023-03-01T00:55:57;15.77;;;10.75;;
52057;SDS011;38063;53.210;6.504;2023-03-01T00:58:23;18.25;;;10.75;;
52057;SDS011;38063;53.210;6.504;2023-03-01T01:00:49;19.17;;;11.88;;
52057;SDS011;38063;53.210;6.504;2023-03-01T01:03:14;20.58;;;11.93;;
52057;SDS011;38063;53.210;6.504;2023-03-01T01:05:40;20.50;;;11.18;;
52057;SDS011;38063;53.210;6.504;2023-03-01T01:08:05;23.98;;;11.65;;
52057;SDS011;38063;53.210;6.504;2023-03-01T01:10:33;20.60;;;11.73;;
52057;SDS011;38063;53.210;6.504;2023-03-01T01:12:59;18.80;;;11.70;;
52057;SDS011;38063;53.210;6.504;2023-03-01T01:15:26;21.02;;;12.05;;
52057;SDS011;38063;53.210;6.504;2023-03-01T01:17:51;19.75;;;11.55;;
52057;SDS011;38063;53.210;6.504;2023-03-01T01:20:17;19.10;;;11.02;;
52057;SDS011;38063;53.210;6.504;2023-03-01T01:22:43;18.33;;;11.02;;
52057;SDS011;38063;53.210;6.504;2023-03-01T01:25:09;18.30;;;10.15;;
52057;SDS011;38063;53.210;6.504;2023-03-01T01:27:35;17.10;;;10.15;;
52057;SDS011;38063;53.210;6.504;2023-03-01T01:30:02;15.10;;;9.43;;
52057;SDS011;38063;53.210;6.504;2023-03-01T01:32:28;18.98;;;9.43;;
52057;SDS011;38063;53.210;6.504;2023-03-01T01:34:54;18.10;;;9.88;;
52057;SDS011;38063;53.210;6.504;2023-03-01T01:37:20;15.70;;;8.75;;
52057;SDS011;38063;53.210;6.504;2023-03-01T01:39:45;11.82;;;7.68;;
52057;SDS011;38063;53.210;6.504;2023-03-01T01:42:15;13.43;;;8.38;;
52057;SDS011;38063;53.210;6.504;2023-03-01T01:44:44;12.65;;;8.80;;
52057;SDS011;38063;53.210;6.504;2023-03-01T01:47:16;12.52;;;8.32;;
52057;SDS011;38063;53.210;6.504;2023-03-01T01:49:54;9.93;;;7.35;;
52057;SDS011;38063;53.210;6.504;2023-03-01T01:54:50;12.35;;;7.78;;
52057;SDS011;38063;53.210;6.504;2023-03-01T01:57:27;17.88;;;9.48;;
52057;SDS011;38063;53.210;6.504;2023-03-01T01:59:59;16.95;;;10.55;;
52057;SDS011;38063;53.210;6.504;2023-03-01T02:02:29;14.98;;;8.73;;
52057;SDS011;38063;53.210;6.504;2023-03-01T02:05:00;12.95;;;9.52;;
52057;SDS011;38063;53.210;6.504;2023-03-01T02:07:35;13.77;;;8.50;;
52057;SDS011;38063;53.210;6.504;2023-03-01T02:10:04;12.48;;;7.82;;
52057;SDS011;38063;53.210;6.504;2023-03-01T02:12:30;12.48;;;7.90;;
52057;SDS011;38063;53.210;6.504;2023-03-01T02:14:56;13.13;;;7.72;;
52057;SDS011;38063;53.210;6.504;2023-03-01T02:17:22;11.60;;;7.78;;
52057;SDS011;38063;53.210;6.504;2023-03-01T02:22:35;15.68;;;8.95;;
52057;SDS011;38063;53.210;6.504;2023-03-01T02:25:12;14.55;;;9.07;;
52057;SDS011;38063;53.210;6.504;2023-03-01T02:30:34;9.68;;;6.63;;
52057;SDS011;38063;53.210;6.504;2023-03-01T02:33:00;7.70;;;5.82;;
52057;SDS011;38063;53.210;6.504;2023-03-01T02:35:34;9.10;;;6.63;;
52057;SDS011;38063;53.210;6.504;2023-03-01T02:38:02;9.65;;;7.22;;
52057;SDS011;38063;53.210;6.504;2023-03-01T02:40:33;8.77;;;6.57;;
52057;SDS011;38063;53.210;6.504;2023-03-01T02:43:00;13.23;;;6.35;;
52057;SDS011;38063;53.210;6.504;2023-03-01T02:45:27;9.00;;;6.18;;
52057;SDS011;38063;53.210;6.504;2023-03-01T02:47:56;7.93;;;5.72;;
52057;SDS011;38063;53.210;6.504;2023-03-01T02:55:35;9.15;;;6.75;;
52057;SDS011;38063;53.210;6.504;2023-03-01T02:58:02;8.63;;;6.78;;
52057;SDS011;38063;53.210;6.504;2023-03-01T03:00:28;7.97;;;6.70;;
52057;SDS011;38063;53.210;6.504;2023-03-01T03:02:58;8.35;;;6.75;;
52057;SDS011;38063;53.210;6.504;2023-03-01T03:05:25;7.55;;;6.03;;
52057;SDS011;38063;53.210;6.504;2023-03-01T03:07:52;7.68;;;6.00;;
52057;SDS011;38063;53.210;6.504;2023-03-01T03:10:22;8.05;;;5.85;;
52057;SDS011;38063;53.210;6.504;2023-03-01T03:12:57;7.13;;;5.47;;
52057;SDS011;38063;53.210;6.504;2023-03-01T03:15:28;7.75;;;6.18;;
52057;SDS011;38063;53.210;6.504;2023-03-01T03:17:54;8.55;;;6.13;;
52057;SDS011;38063;53.210;6.504;2023-03-01T03:20:21;7.70;;;5.75;;
52057;SDS011;38063;53.210;6.504;2023-03-01T03:22:49;7.65;;;6.13;;
52057;SDS011;38063;53.210;6.504;2023-03-01T03:25:17;8.75;;;6.15;;
52057;SDS011;38063;53.210;6.504;2023-03-01T03:27:45;8.38;;;6.22;;
52057;SDS011;38063;53.210;6.504;2023-03-01T03:30:13;8.65;;;6.45;;
52057;SDS011;38063;53.210;6.504;2023-03-01T03:32:41;7.57;;;5.57;;
52057;SDS011;38063;53.210;6.504;2023-03-01T03:37:50;7.32;;;5.57;;
52057;SDS011;38063;53.210;6.504;2023-03-01T03:40:38;8.02;;;6.07;;
52057;SDS011;38063;53.210;6.504;2023-03-01T03:43:09;7.40;;;6.03;;
52057;SDS011;38063;53.210;6.504;2023-03-01T03:45:37;8.07;;;5.88;;
52057;SDS011;38063;53.210;6.504;2023-03-01T03:48:03;8.57;;;6.65;;
52057;SDS011;38063;53.210;6.504;2023-03-01T03:50:31;8.95;;;6.28;;
52057;SDS011;38063;53.210;6.504;2023-03-01T03:52:57;9.18;;;6.97;;
52057;SDS011;38063;53.210;6.504;2023-03-01T03:55:23;8.98;;;6.85;;
52057;SDS011;38063;53.210;6.504;2023-03-01T03:57:53;8.15;;;6.18;;
52057;SDS011;38063;53.210;6.504;2023-03-01T04:00:19;8.75;;;5.88;;
52057;SDS011;38063;53.210;6.504;2023-03-01T04:02:46;7.78;;;6.07;;
52057;SDS011;38063;53.210;6.504;2023-03-01T04:05:13;8.55;;;6.28;;
52057;SDS011;38063;53.210;6.504;2023-03-01T04:07:41;8.75;;;6.43;;
52057;SDS011;38063;53.210;6.504;2023-03-01T04:10:09;11.32;;;8.07;;
52057;SDS011;38063;53.210;6.504;2023-03-01T04:12:36;12.50;;;8.20;;
52057;SDS011;38063;53.210;6.504;2023-03-01T04:15:02;12.50;;;8.40;;
52057;SDS011;38063;53.210;6.504;2023-03-01T04:17:42;10.73;;;7.60;;
52057;SDS011;38063;53.210;6.504;2023-03-01T04:20:10;9.52;;;7.82;;
52057;SDS011;38063;53.210;6.504;2023-03-01T04:22:38;11.82;;;7.45;;
52057;SDS011;38063;53.210;6.504;2023-03-01T04:25:05;11.93;;;7.82;;
52057;SDS011;38063;53.210;6.504;2023-03-01T04:27:35;14.18;;;8.15;;
52057;SDS011;38063;53.210;6.504;2023-03-01T04:30:01;15.85;;;9.13;;
52057;SDS011;38063;53.210;6.504;2023-03-01T04:32:30;12.27;;;7.15;;
52057;SDS011;38063;53.210;6.504;2023-03-01T04:34:55;13.65;;;8.00;;
52057;SDS011;38063;53.210;6.504;2023-03-01T04:37:21;10.85;;;8.00;;
52057;SDS011;38063;53.210;6.504;2023-03-01T04:39:47;14.50;;;8.80;;
52057;SDS011;38063;53.210;6.504;2023-03-01T04:42:13;13.40;;;8.48;;
52057;SDS011;38063;53.210;6.504;2023-03-01T04:44:45;13.52;;;9.07;;
52057;SDS011;38063;53.210;6.504;2023-03-01T04:47:11;18.05;;;8.77;;
52057;SDS011;38063;53.210;6.504;2023-03-01T04:49:36;21.52;;;9.23;;
52057;SDS011;38063;53.210;6.504;2023-03-01T04:52:02;13.07;;;8.20;;
52057;SDS011;38063;53.210;6.504;2023-03-01T04:54:33;23.25;;;8.88;;
52057;SDS011;38063;53.210;6.504;2023-03-01T04:56:59;13.95;;;8.90;;
52057;SDS011;38063;53.210;6.504;2023-03-01T04:59:26;48.92;;;10.68;;
52057;SDS011;38063;53.210;6.504;2023-03-01T05:01:52;27.67;;;10.00;;
52057;SDS011;38063;53.210;6.504;2023-03-01T05:04:22;42.67;;;9.52;;
52057;SDS011;38063;53.210;6.504;2023-03-01T05:06:48;21.65;;;9.82;;
52057;SDS011;38063;53.210;6.504;2023-03-01T05:09:15;26.27;;;10.48;;
52057;SDS011;38063;53.210;6.504;2023-03-01T05:11:40;27.20;;;10.38;;
52057;SDS011;38063;53.210;6.504;2023-03-01T05:14:07;16.35;;;9.45;;
52057;SDS011;38063;53.210;6.504;2023-03-01T05:16:34;46.70;;;11.65;;
52057;SDS011;38063;53.210;6.504;2023-03-01T05:19:01;25.80;;;10.60;;
52057;SDS011;38063;53.210;6.504;2023-03-01T05:21:36;19.52;;;10.38;;
52057;SDS011;38063;53.210;6.504;2023-03-01T05:24:23;17.52;;;10.23;;
52057;SDS011;38063;53.210;6.504;2023-03-01T05:26:49;19.30;;;10.60;;
52057;SDS011;38063;53.210;6.504;2023-03-01T05:29:17;18.17;;;10.52;;
52057;SDS011;38063;53.210;6.504;2023-03-01T05:31:51;17.42;;;11.00;;
52057;SDS011;38063;53.210;6.504;2023-03-01T05:34:18;18.38;;;10.20;;
52057;SDS011;38063;53.210;6.504;2023-03-01T05:36:47;18.35;;;10.80;;
52057;SDS011;38063;53.210;6.504;2023-03-01T05:39:13;16.73;;;10.30;;
52057;SDS011;38063;53.210;6.504;2023-03-01T05:41:39;14.27;;;9.18;;
52057;SDS011;38063;53.210;6.504;2023-03-01T05:44:06;17.48;;;10.38;;
52057;SDS011;38063;53.210;6.504;2023-03-01T05:46:31;14.70;;;9.13;;
52057;SDS011;38063;53.210;6.504;2023-03-01T05:48:57;14.27;;;8.70;;
52057;SDS011;38063;53.210;6.504;2023-03-01T05:51:23;16.00;;;8.57;;
52057;SDS011;38063;53.210;6.504;2023-03-01T05:53:48;13.70;;;9.35;;
52057;SDS011;38063;53.210;6.504;2023-03-01T05:56:14;16.17;;;9.05;;
52057;SDS011;38063;53.210;6.504;2023-03-01T05:58:40;16.23;;;9.15;;
52057;SDS011;38063;53.210;6.504;2023-03-01T06:01:10;13.32;;;8.88;;
52057;SDS011;38063;53.210;6.504;2023-03-01T06:03:36;15.07;;;9.32;;
52057;SDS011;38063;53.210;6.504;2023-03-01T06:06:02;13.25;;;8.18;;
52057;SDS011;38063;53.210;6.504;2023-03-01T06:08:28;16.42;;;9.27;;
52057;SDS011;38063;53.210;6.504;2023-03-01T06:10:53;15.30;;;8.80;;
52057;SDS011;38063;53.210;6.504;2023-03-01T06:13:19;13.05;;;8.75;;
52057;SDS011;38063;53.210;6.504;2023-03-01T06:15:45;15.80;;;9.32;;
52057;SDS011;38063;53.210;6.504;2023-03-01T06:18:10;17.75;;;8.88;;
52057;SDS011;38063;53.210;6.504;2023-03-01T06:20:36;14.23;;;8.50;;
52057;SDS011;38063;53.210;6.504;2023-03-01T06:23:02;14.88;;;9.00;;
52057;SDS011;38063;53.210;6.504;2023-03-01T06:25:27;16.25;;;9.23;;
52057;SDS011;38063;53.210;6.504;2023-03-01T06:27:53;15.60;;;9.55;;
52057;SDS011;38063;53.210;6.504;2023-03-01T06:30:20;12.93;;;8.55;;
52057;SDS011;38063;53.210;6.504;2023-03-01T06:32:46;14.13;;;8.85;;
52057;SDS011;38063;53.210;6.504;2023-03-01T06:35:13;14.95;;;8.52;;
52057;SDS011;38063;53.210;6.504;2023-03-01T06:37:42;15.60;;;9.27;;
52057;SDS011;38063;53.210;6.504;2023-03-01T06:40:08;16.45;;;9.82;;
52057;SDS011;38063;53.210;6.504;2023-03-01T06:42:36;16.45;;;9.50;;
52057;SDS011;38063;53.210;6.504;2023-03-01T06:45:04;18.20;;;9.95;;
52057;SDS011;38063;53.210;6.504;2023-03-01T06:47:31;15.95;;;9.65;;
52057;SDS011;38063;53.210;6.504;2023-03-01T06:49:58;16.58;;;9.60;;
52057;SDS011;38063;53.210;6.504;2023-03-01T06:52:24;15.02;;;9.02;;
52057;SDS011;38063;53.210;6.504;2023-03-01T06:54:50;15.90;;;9.15;;
52057;SDS011;38063;53.210;6.504;2023-03-01T06:57:15;16.02;;;9.48;;
52057;SDS011;38063;53.210;6.504;2023-03-01T06:59:41;21.58;;;10.13;;
52057;SDS011;38063;53.210;6.504;2023-03-01T07:02:09;17.65;;;9.88;;
52057;SDS011;38063;53.210;6.504;2023-03-01T07:04:36;14.10;;;9.35;;
52057;SDS011;38063;53.210;6.504;2023-03-01T07:07:02;15.23;;;9.77;;
52057;SDS011;38063;53.210;6.504;2023-03-01T07:09:27;21.60;;;11.35;;
52057;SDS011;38063;53.210;6.504;2023-03-01T07:11:53;20.73;;;10.50;;
52057;SDS011;38063;53.210;6.504;2023-03-01T07:14:19;19.20;;;10.82;;
52057;SDS011;38063;53.210;6.504;2023-03-01T07:16:45;19.35;;;11.35;;
52057;SDS011;38063;53.210;6.504;2023-03-01T07:19:11;21.35;;;11.57;;
52057;SDS011;38063;53.210;6.504;2023-03-01T07:21:36;18.10;;;10.85;;
52057;SDS011;38063;53.210;6.504;2023-03-01T07:24:05;21.10;;;10.48;;
52057;SDS011;38063;53.210;6.504;2023-03-01T07:26:31;22.05;;;12.05;;
52057;SDS011;38063;53.210;6.504;2023-03-01T07:28:58;23.65;;;11.48;;
52057;SDS011;38063;53.210;6.504;2023-03-01T07:31:25;25.15;;;12.77;;
52057;SDS011;38063;53.210;6.504;2023-03-01T07:33:52;21.85;;;11.63;;
52057;SDS011;38063;53.210;6.504;2023-03-01T07:36:19;23.15;;;11.90;;
52057;SDS011;38063;53.210;6.504;2023-03-01T07:38:45;23.85;;;12.60;;
52057;SDS011;38063;53.210;6.504;2023-03-01T07:41:10;21.08;;;11.50;;
52057;SDS011;38063;53.210;6.504;2023-03-01T07:43:36;25.48;;;13.25;;
52057;SDS011;38063;53.210;6.504;2023-03-01T07:46:02;20.23;;;12.07;;
52057;SDS011;38063;53.210;6.504;2023-03-01T07:48:29;25.67;;;13.70;;
52057;SDS011;38063;53.210;6.504;2023-03-01T07:50:59;25.92;;;14.02;;
52057;SDS011;38063;53.210;6.504;2023-03-01T07:53:25;25.30;;;14.38;;
52057;SDS011;38063;53.210;6.504;2023-03-01T07:58:49;22.50;;;13.00;;
52057;SDS011;38063;53.210;6.504;2023-03-01T08:01:16;25.27;;;14.43;;
52057;SDS011;38063;53.210;6.504;2023-03-01T08:03:44;27.88;;;14.73;;
52057;SDS011;38063;53.210;6.504;2023-03-01T08:06:10;25.55;;;14.50;;
52057;SDS011;38063;53.210;6.504;2023-03-01T08:08:38;27.60;;;14.80;;
52057;SDS011;38063;53.210;6.504;2023-03-01T08:11:04;28.58;;;15.77;;
52057;SDS011;38063;53.210;6.504;2023-03-01T08:13:31;26.65;;;15.80;;
52057;SDS011;38063;53.210;6.504;2023-03-01T08:16:02;29.23;;;16.35;;
52057;SDS011;38063;53.210;6.504;2023-03-01T08:18:28;36.10;;;19.50;;
52057;SDS011;38063;53.210;6.504;2023-03-01T08:20:54;36.33;;;19.73;;
52057;SDS011;38063;53.210;6.504;2023-03-01T08:23:19;34.90;;;19.90;;
52057;SDS011;38063;53.210;6.504;2023-03-01T08:25:45;39.35;;;20.10;;
52057;SDS011;38063;53.210;6.504;2023-03-01T08:28:11;40.03;;;20.73;;
52057;SDS011;38063;53.210;6.504;2023-03-01T08:30:36;50.88;;;23.88;;
52057;SDS011;38063;53.210;6.504;2023-03-01T08:33:02;51.80;;;26.23;;
52057;SDS011;38063;53.210;6.504;2023-03-01T08:35:28;55.08;;;25.90;;
52057;SDS011;38063;53.210;6.504;2023-03-01T08:37:53;71.32;;;31.95;;
52057;SDS011;38063;53.210;6.504;2023-03-01T08:40:19;78.47;;;36.03;;
52057;SDS011;38063;53.210;6.504;2023-03-01T08:42:44;74.85;;;35.30;;
52057;SDS011;38063;53.210;6.504;2023-03-01T08:45:11;80.65;;;36.70;;
52057;SDS011;38063;53.210;6.504;2023-03-01T08:47:37;84.50;;;40.20;;
52057;SDS011;38063;53.210;6.504;2023-03-01T08:50:03;98.97;;;41.83;;
52057;SDS011;38063;53.210;6.504;2023-03-01T08:52:29;93.95;;;43.47;;
52057;SDS011;38063;53.210;6.504;2023-03-01T08:54:55;92.88;;;42.90;;
52057;SDS011;38063;53.210;6.504;2023-03-01T08:57:21;93.93;;;47.15;;
52057;SDS011;38063;53.210;6.504;2023-03-01T08:59:47;99.63;;;48.38;;
52057;SDS011;38063;53.210;6.504;2023-03-01T09:02:17;105.60;;;50.00;;
52057;SDS011;38063;53.210;6.504;2023-03-01T09:04:44;103.13;;;49.83;;
52057;SDS011;38063;53.210;6.504;2023-03-01T09:07:10;109.20;;;51.60;;
52057;SDS011;38063;53.210;6.504;2023-03-01T09:09:35;107.00;;;48.42;;
52057;SDS011;38063;53.210;6.504;2023-03-01T09:12:01;105.75;;;46.90;;
52057;SDS011;38063;53.210;6.504;2023-03-01T09:14:28;101.93;;;46.38;;
52057;SDS011;38063;53.210;6.504;2023-03-01T09:16:53;84.88;;;40.20;;
52057;SDS011;38063;53.210;6.504;2023-03-01T09:19:19;87.78;;;41.55;;
52057;SDS011;38063;53.210;6.504;2023-03-01T09:21:45;78.18;;;37.85;;
52057;SDS011;38063;53.210;6.504;2023-03-01T09:24:17;79.88;;;39.83;;
52057;SDS011;38063;53.210;6.504;2023-03-01T09:26:45;72.07;;;35.63;;
52057;SDS011;38063;53.210;6.504;2023-03-01T09:29:11;70.10;;;34.45;;
52057;SDS011;38063;53.210;6.504;2023-03-01T09:31:37;76.88;;;37.42;;
52057;SDS011;38063;53.210;6.504;2023-03-01T09:34:03;65.28;;;33.55;;
52057;SDS011;38063;53.210;6.504;2023-03-01T09:36:30;65.25;;;33.47;;
52057;SDS011;38063;53.210;6.504;2023-03-01T09:38:58;61.00;;;30.65;;
52057;SDS011;38063;53.210;6.504;2023-03-01T09:46:43;61.58;;;29.00;;
52057;SDS011;38063;53.210;6.504;2023-03-01T09:49:21;49.15;;;26.30;;
52057;SDS011;38063;53.210;6.504;2023-03-01T09:54:21;40.05;;;22.42;;
52057;SDS011;38063;53.210;6.504;2023-03-01T09:56:59;45.00;;;23.23;;
52057;SDS011;38063;53.210;6.504;2023-03-01T10:08:04;35.58;;;18.88;;
52057;SDS011;38063;53.210;6.504;2023-03-01T10:10:47;35.90;;;19.65;;
52057;SDS011;38063;53.210;6.504;2023-03-01T10:16:06;36.75;;;19.67;;
52057;SDS011;38063;53.210;6.504;2023-03-01T10:18:40;34.45;;;19.20;;
52057;SDS011;38063;53.210;6.504;2023-03-01T10:21:15;36.97;;;19.83;;
52057;SDS011;38063;53.210;6.504;2023-03-01T10:23:44;30.50;;;17.85;;
52057;SDS011;38063;53.210;6.504;2023-03-01T10:26:22;31.55;;;18.77;;
52057;SDS011;38063;53.210;6.504;2023-03-01T10:29:06;30.02;;;18.27;;
52057;SDS011;38063;53.210;6.504;2023-03-01T10:31:38;27.88;;;17.52;;
52057;SDS011;38063;53.210;6.504;2023-03-01T10:34:18;29.15;;;19.13;;
52057;SDS011;38063;53.210;6.504;2023-03-01T10:39:56;29.55;;;17.30;;
52057;SDS011;38063;53.210;6.504;2023-03-01T10:42:29;30.52;;;16.90;;
52057;SDS011;38063;53.210;6.504;2023-03-01T10:45:14;29.05;;;16.73;;
52057;SDS011;38063;53.210;6.504;2023-03-01T10:48:02;32.58;;;17.50;;
52057;SDS011;38063;53.210;6.504;2023-03-01T10:50:38;29.00;;;17.80;;
52057;SDS011;38063;53.210;6.504;2023-03-01T10:55:56;27.05;;;17.08;;
52057;SDS011;38063;53.210;6.504;2023-03-01T10:58:28;25.02;;;15.18;;
52057;SDS011;38063;53.210;6.504;2023-03-01T11:00:56;26.35;;;16.23;;
52057;SDS011;38063;53.210;6.504;2023-03-01T11:03:36;27.92;;;16.17;;
52057;SDS011;38063;53.210;6.504;2023-03-01T11:06:19;27.40;;;17.08;;
52057;SDS011;38063;53.210;6.504;2023-03-01T11:08:49;21.63;;;13.65;;
52057;SDS011;38063;53.210;6.504;2023-03-01T11:11:21;25.17;;;15.80;;
52057;SDS011;38063;53.210;6.504;2023-03-01T11:13:49;22.92;;;14.85;;
52057;SDS011;38063;53.210;6.504;2023-03-01T11:16:16;24.35;;;15.35;;
52057;SDS011;38063;53.210;6.504;2023-03-01T11:19:01;20.25;;;13.68;;
52057;SDS011;38063;53.210;6.504;2023-03-01T11:21:30;22.63;;;13.10;;
52057;SDS011;38063;53.210;6.504;2023-03-01T11:23:59;22.92;;;13.35;;
52057;SDS011;38063;53.210;6.504;2023-03-01T11:26:27;22.15;;;13.35;;
52057;SDS011;38063;53.210;6.504;2023-03-01T11:28:55;21.90;;;13.88;;
52057;SDS011;38063;53.210;6.504;2023-03-01T11:31:25;20.80;;;12.32;;
52057;SDS011;38063;53.210;6.504;2023-03-01T11:33:55;23.33;;;13.55;;
52057;SDS011;38063;53.210;6.504;2023-03-01T11:44:43;23.90;;;14.30;;
52057;SDS011;38063;53.210;6.504;2023-03-01T11:58:30;17.45;;;10.95;;
52057;SDS011;38063;53.210;6.504;2023-03-01T12:03:31;17.98;;;9.75;;
52057;SDS011;38063;53.210;6.504;2023-03-01T12:41:35;16.70;;;10.00;;
52057;SDS011;38063;53.210;6.504;2023-03-01T12:50:19;16.95;;;11.00;;
52057;SDS011;38063;53.210;6.504;2023-03-01T12:52:57;17.08;;;11.52;;
52057;SDS011;38063;53.210;6.504;2023-03-01T12:55:31;20.00;;;12.00;;
52057;SDS011;38063;53.210;6.504;2023-03-01T13:01:05;16.30;;;11.45;;
52057;SDS011;38063;53.210;6.504;2023-03-01T13:11:42;13.60;;;9.27;;
52057;SDS011;38063;53.210;6.504;2023-03-01T13:16:46;15.30;;;9.20;;
52057;SDS011;38063;53.210;6.504;2023-03-01T13:19:24;11.73;;;8.63;;
52057;SDS011;38063;53.210;6.504;2023-03-01T13:21:52;13.43;;;8.75;;
52057;SDS011;38063;53.210;6.504;2023-03-01T13:25:03;12.13;;;8.85;;
52057;SDS011;38063;53.210;6.504;2023-03-01T13:32:23;14.23;;;9.10;;
52057;SDS011;38063;53.210;6.504;2023-03-01T13:34:58;13.10;;;9.07;;
52057;SDS011;38063;53.210;6.504;2023-03-01T13:37:26;17.48;;;9.55;;
52057;SDS011;38063;53.210;6.504;2023-03-01T13:39:55;16.58;;;9.52;;
52057;SDS011;38063;53.210;6.504;2023-03-01T13:45:15;13.73;;;9.88;;
52057;SDS011;38063;53.210;6.504;2023-03-01T13:50:15;13.98;;;9.80;;
52057;SDS011;38063;53.210;6.504;2023-03-01T13:53:06;15.02;;;10.00;;
52057;SDS011;38063;53.210;6.504;2023-03-01T13:55:41;14.80;;;10.15;;
52057;SDS011;38063;53.210;6.504;2023-03-01T13:58:19;16.48;;;9.90;;
52057;SDS011;38063;53.210;6.504;2023-03-01T14:00:54;16.45;;;10.60;;
52057;SDS011;38063;53.210;6.504;2023-03-01T14:03:21;13.85;;;10.00;;
52057;SDS011;38063;53.210;6.504;2023-03-01T14:06:06;15.95;;;10.02;;
52057;SDS011;38063;53.210;6.504;2023-03-01T14:08:33;15.00;;;9.93;;
52057;SDS011;38063;53.210;6.504;2023-03-01T14:11:20;14.02;;;8.57;;
52057;SDS011;38063;53.210;6.504;2023-03-01T14:19:36;15.75;;;9.00;;
52057;SDS011;38063;53.210;6.504;2023-03-01T14:22:19;16.25;;;9.88;;
52057;SDS011;38063;53.210;6.504;2023-03-01T14:24:54;11.85;;;9.13;;
52057;SDS011;38063;53.210;6.504;2023-03-01T14:27:37;13.73;;;9.45;;
52057;SDS011;38063;53.210;6.504;2023-03-01T14:32:37;16.00;;;9.90;;
52057;SDS011;38063;53.210;6.504;2023-03-01T14:35:03;15.80;;;10.48;;
52057;SDS011;38063;53.210;6.504;2023-03-01T14:37:43;12.93;;;10.07;;
52057;SDS011;38063;53.210;6.504;2023-03-01T14:40:19;14.60;;;10.15;;
52057;SDS011;38063;53.210;6.504;2023-03-01T14:43:09;16.35;;;10.75;;
52057;SDS011;38063;53.210;6.504;2023-03-01T14:45:37;16.83;;;10.55;;
52057;SDS011;38063;53.210;6.504;2023-03-01T14:48:03;18.27;;;10.25;;
52057;SDS011;38063;53.210;6.504;2023-03-01T14:50:32;14.25;;;10.05;;
52057;SDS011;38063;53.210;6.504;2023-03-01T14:53:01;15.88;;;10.27;;
52057;SDS011;38063;53.210;6.504;2023-03-01T14:55:36;16.95;;;10.30;;
52057;SDS011;38063;53.210;6.504;2023-03-01T14:58:09;16.50;;;10.63;;
52057;SDS011;38063;53.210;6.504;2023-03-01T15:00:38;17.17;;;11.18;;
52057;SDS011;38063;53.210;6.504;2023-03-01T15:03:13;16.55;;;11.38;;
52057;SDS011;38063;53.210;6.504;2023-03-01T15:05:45;15.60;;;10.80;;
52057;SDS011;38063;53.210;6.504;2023-03-01T15:08:18;14.10;;;9.63;;
52057;SDS011;38063;53.210;6.504;2023-03-01T15:11:00;16.30;;;11.15;;
52057;SDS011;38063;53.210;6.504;2023-03-01T15:13:38;15.50;;;11.05;;
52057;SDS011;38063;53.210;6.504;2023-03-01T15:16:06;17.33;;;10.45;;
52057;SDS011;38063;53.210;6.504;2023-03-01T15:18:36;15.25;;;10.48;;
52057;SDS011;38063;53.210;6.504;2023-03-01T15:21:42;14.80;;;10.00;;
52057;SDS011;38063;53.210;6.504;2023-03-01T15:26:45;14.00;;;10.57;;
52057;SDS011;38063;53.210;6.504;2023-03-01T15:29:32;17.33;;;11.18;;
52057;SDS011;38063;53.210;6.504;2023-03-01T15:34:33;16.85;;;11.00;;
52057;SDS011;38063;53.210;6.504;2023-03-01T15:37:04;15.85;;;11.40;;
52057;SDS011;38063;53.210;6.504;2023-03-01T15:39:33;21.55;;;11.13;;
52057;SDS011;38063;53.210;6.504;2023-03-01T15:45:20;17.83;;;11.27;;
52057;SDS011;38063;53.210;6.504;2023-03-01T15:47:49;18.85;;;11.65;;
52057;SDS011;38063;53.210;6.504;2023-03-01T15:50:19;17.08;;;11.43;;
52057;SDS011;38063;53.210;6.504;2023-03-01T15:52:47;16.38;;;10.95;;
52057;SDS011;38063;53.210;6.504;2023-03-01T15:55:15;16.23;;;11.18;;
52057;SDS011;38063;53.210;6.504;2023-03-01T15:57:49;18.30;;;11.75;;
52057;SDS011;38063;53.210;6.504;2023-03-01T16:00:31;16.73;;;10.68;;
52057;SDS011;38063;53.210;6.504;2023-03-01T16:02:57;14.73;;;10.77;;
52057;SDS011;38063;53.210;6.504;2023-03-01T16:05:25;18.35;;;11.52;;
52057;SDS011;38063;53.210;6.504;2023-03-01T16:07:53;17.25;;;11.18;;
52057;SDS011;38063;53.210;6.504;2023-03-01T16:10:19;17.77;;;11.20;;
52057;SDS011;38063;53.210;6.504;2023-03-01T16:12:45;15.07;;;10.55;;
52057;SDS011;38063;53.210;6.504;2023-03-01T16:17:47;17.30;;;10.57;;
52057;SDS011;38063;53.210;6.504;2023-03-01T16:20:13;18.38;;;12.77;;
52057;SDS011;38063;53.210;6.504;2023-03-01T16:22:43;15.68;;;12.52;;
52057;SDS011;38063;53.210;6.504;2023-03-01T16:25:10;17.27;;;12.32;;
52057;SDS011;38063;53.210;6.504;2023-03-01T16:27:44;19.67;;;12.20;;
52057;SDS011;38063;53.210;6.504;2023-03-01T16:30:12;19.55;;;12.38;;
52057;SDS011;38063;53.210;6.504;2023-03-01T16:32:39;18.85;;;13.50;;
52057;SDS011;38063;53.210;6.504;2023-03-01T16:35:06;22.88;;;13.85;;
52057;SDS011;38063;53.210;6.504;2023-03-01T16:37:33;19.55;;;13.55;;
52057;SDS011;38063;53.210;6.504;2023-03-01T16:40:00;17.58;;;12.40;;
52057;SDS011;38063;53.210;6.504;2023-03-01T16:42:26;17.40;;;12.45;;
52057;SDS011;38063;53.210;6.504;2023-03-01T16:44:55;20.88;;;12.13;;
52057;SDS011;38063;53.210;6.504;2023-03-01T16:47:21;17.15;;;11.90;;
52057;SDS011;38063;53.210;6.504;2023-03-01T16:49:47;19.38;;;12.20;;
52057;SDS011;38063;53.210;6.504;2023-03-01T16:52:16;17.58;;;11.20;;
52057;SDS011;38063;53.210;6.504;2023-03-01T16:54:41;18.27;;;12.10;;
52057;SDS011;38063;53.210;6.504;2023-03-01T16:57:07;15.20;;;11.32;;
52057;SDS011;38063;53.210;6.504;2023-03-01T16:59:33;16.77;;;11.13;;
52057;SDS011;38063;53.210;6.504;2023-03-01T17:01:58;17.92;;;11.23;;
52057;SDS011;38063;53.210;6.504;2023-03-01T17:04:24;18.02;;;10.85;;
52057;SDS011;38063;53.210;6.504;2023-03-01T17:06:50;19.05;;;11.20;;
52057;SDS011;38063;53.210;6.504;2023-03-01T17:09:15;20.08;;;11.63;;
52057;SDS011;38063;53.210;6.504;2023-03-01T17:11:42;20.92;;;11.55;;
52057;SDS011;38063;53.210;6.504;2023-03-01T17:14:08;18.95;;;11.85;;